createdAt,value
2018-09-25T00:02:31.418Z,7.30
2018-09-25T00:05:05.235Z,7.20
2018-09-25T00:07:38.962Z,7.20
2018-09-25T00:10:13.113Z,7.20
2018-09-25T00:12:48.139Z,7.20
2018-09-25T00:15:21.948Z,7.20
2018-09-25T00:17:55.972Z,7.20
2018-09-25T00:20:29.714Z,7.20
2018-09-25T00:23:04.485Z,7.20
2018-09-25T00:25:38.172Z,7.20
2018-09-25T00:28:11.993Z,7.20
2018-09-25T00:30:45.802Z,7.20
2018-09-25T00:33:20.628Z,7.10
2018-09-25T00:35:54.441Z,7.10
2018-09-25T00:38:28.275Z,7.10
2018-09-25T00:41:02.178Z,7.10
2018-09-25T00:43:36.541Z,7.10
2018-09-25T00:46:10.302Z,7.10
2018-09-25T00:48:44.011Z,7.00
2018-09-25T00:51:17.685Z,7.10
2018-09-25T00:53:52.454Z,7.00
2018-09-25T00:56:26.254Z,7.00
2018-09-25T00:59:00.045Z,7.00
2018-09-25T01:01:33.879Z,7.00
2018-09-25T01:04:08.406Z,7.00
2018-09-25T01:06:42.318Z,6.90
2018-09-25T01:09:16.189Z,6.90
2018-09-25T01:11:49.918Z,6.90
2018-09-25T01:14:23.773Z,6.90
2018-09-25T01:16:57.450Z,6.90
2018-09-25T01:19:31.207Z,6.90
2018-09-25T01:22:04.933Z,6.90
2018-09-25T01:24:38.851Z,6.90
2018-09-25T01:27:12.498Z,6.90
2018-09-25T01:29:46.171Z,6.80
2018-09-25T01:32:20.091Z,6.80
2018-09-25T01:34:54.903Z,6.70
2018-09-25T01:37:28.482Z,6.70
2018-09-25T01:40:02.347Z,6.70
2018-09-25T01:42:35.959Z,6.60
2018-09-25T01:45:10.555Z,6.60
2018-09-25T01:47:44.940Z,6.50
2018-09-25T01:50:19.786Z,6.50
2018-09-25T01:52:53.585Z,6.50
2018-09-25T01:55:27.669Z,6.50
2018-09-25T01:58:01.743Z,6.50
2018-09-25T02:00:35.395Z,6.40
2018-09-25T02:03:08.952Z,6.40
2018-09-25T02:05:42.611Z,6.30
2018-09-25T02:08:16.421Z,6.30
2018-09-25T02:10:50.126Z,6.30
2018-09-25T02:13:23.860Z,6.20
2018-09-25T02:15:58.431Z,6.20
2018-09-25T02:18:32.274Z,6.10
2018-09-25T02:21:05.879Z,6.00
2018-09-25T02:23:39.532Z,6.00
2018-09-25T02:26:13.199Z,6.00
2018-09-25T02:28:46.864Z,6.00
2018-09-25T02:31:20.525Z,6.00
2018-09-25T02:33:54.166Z,6.00
2018-09-25T02:36:28.038Z,6.00
2018-09-25T02:39:01.690Z,6.00
2018-09-25T02:41:35.319Z,5.90
2018-09-25T02:44:09.363Z,5.90
2018-09-25T02:46:44.002Z,5.90
2018-09-25T02:49:17.773Z,5.90
2018-09-25T02:51:51.459Z,5.90
2018-09-25T02:54:25.252Z,5.90
2018-09-25T02:57:00.292Z,6.00
2018-09-25T02:59:34.082Z,6.00
2018-09-25T03:02:07.848Z,6.00
2018-09-25T03:04:41.618Z,6.00
2018-09-25T03:07:16.306Z,6.00
2018-09-25T03:09:50.136Z,6.00
2018-09-25T03:12:23.704Z,6.00
2018-09-25T03:14:57.359Z,6.00
2018-09-25T03:17:32.011Z,6.00
2018-09-25T03:20:05.638Z,6.00
2018-09-25T03:22:39.502Z,6.00
2018-09-25T03:25:13.294Z,5.90
2018-09-25T03:27:47.154Z,5.90
2018-09-25T03:30:20.758Z,5.90
2018-09-25T03:32:54.396Z,5.90
2018-09-25T03:35:28.088Z,5.80
2018-09-25T03:38:03.032Z,5.80
2018-09-25T03:40:37.171Z,5.70
2018-09-25T03:43:10.835Z,5.70
2018-09-25T03:45:44.502Z,5.80
2018-09-25T03:48:18.786Z,5.80
2018-09-25T03:50:52.593Z,5.80
2018-09-25T03:53:26.252Z,5.70
2018-09-25T03:55:59.818Z,5.70
2018-09-25T03:58:34.491Z,5.70
2018-09-25T04:01:08.279Z,5.70
2018-09-25T04:03:42.061Z,5.70
2018-09-25T04:06:15.805Z,5.60
2018-09-25T04:08:49.632Z,5.60
2018-09-25T04:11:23.599Z,5.60
2018-09-25T04:13:57.293Z,5.50
2018-09-25T04:16:30.940Z,5.40
2018-09-25T04:19:04.758Z,5.40
2018-09-25T04:21:38.406Z,5.40
2018-09-25T04:24:11.970Z,5.30
2018-09-25T04:26:45.772Z,5.30
2018-09-25T04:29:20.145Z,5.20
2018-09-25T04:31:53.743Z,5.20
2018-09-25T04:34:27.394Z,5.20
2018-09-25T04:37:01.055Z,5.20
2018-09-25T04:39:35.422Z,5.10
2018-09-25T04:42:09.075Z,5.10
2018-09-25T04:44:42.736Z,5.10
2018-09-25T04:47:16.406Z,5.10
2018-09-25T04:49:51.035Z,5.10
2018-09-25T04:52:24.654Z,5.10
2018-09-25T04:54:58.487Z,5.20
2018-09-25T04:57:32.232Z,5.30
2018-09-25T05:00:07.045Z,5.30
2018-09-25T05:02:40.801Z,5.30
2018-09-25T05:05:14.605Z,5.30
2018-09-25T05:07:48.390Z,5.20
2018-09-25T05:10:23.312Z,5.20
2018-09-25T05:12:57.096Z,5.20
2018-09-25T05:15:30.800Z,5.20
2018-09-25T05:18:04.512Z,5.20
2018-09-25T05:20:39.095Z,5.20
2018-09-25T05:23:12.709Z,5.20
2018-09-25T05:25:46.414Z,5.20
2018-09-25T05:28:20.038Z,5.10
2018-09-25T05:30:54.873Z,5.10
2018-09-25T05:33:28.694Z,5.10
2018-09-25T05:36:02.354Z,5.00
2018-09-25T05:38:35.967Z,5.10
2018-09-25T05:41:10.715Z,5.10
2018-09-25T05:43:44.375Z,5.10
2018-09-25T05:46:18.122Z,5.20
2018-09-25T05:48:52.058Z,5.20
2018-09-25T05:51:26.553Z,5.20
2018-09-25T05:54:00.131Z,5.30
2018-09-25T05:56:33.820Z,5.30
2018-09-25T05:59:07.484Z,5.40
2018-09-25T06:01:42.300Z,5.40
2018-09-25T06:04:15.946Z,5.40
2018-09-25T06:06:49.570Z,5.50
2018-09-25T06:09:23.300Z,5.50
2018-09-25T06:11:57.567Z,5.60
2018-09-25T06:14:31.410Z,5.70
2018-09-25T06:17:05.188Z,5.70
2018-09-25T06:19:38.787Z,5.80
2018-09-25T06:22:13.019Z,5.90
2018-09-25T06:24:46.610Z,6.00
2018-09-25T06:27:20.287Z,6.00
2018-09-25T06:29:53.934Z,6.10
2018-09-25T06:32:28.767Z,6.30
2018-09-25T06:35:02.397Z,6.40
2018-09-25T06:37:36.176Z,6.60
2018-09-25T06:40:10.470Z,6.60
2018-09-25T06:42:45.494Z,6.80
2018-09-25T06:45:19.230Z,6.90
2018-09-25T06:47:53.043Z,7.00
2018-09-25T06:50:26.720Z,7.00
2018-09-25T06:53:01.198Z,7.10
2018-09-25T06:55:34.793Z,7.30
2018-09-25T06:58:08.543Z,7.40
2018-09-25T07:00:42.324Z,7.50
2018-09-25T07:03:16.842Z,7.50
2018-09-25T07:05:50.798Z,7.60
2018-09-25T07:08:24.442Z,7.70
2018-09-25T07:10:58.923Z,7.80
2018-09-25T07:13:33.894Z,7.90
2018-09-25T07:16:07.531Z,8.00
2018-09-25T07:18:41.217Z,8.10
2018-09-25T07:21:14.838Z,8.20
2018-09-25T07:23:49.562Z,8.30
2018-09-25T07:26:23.193Z,8.40
2018-09-25T07:28:56.882Z,8.50
2018-09-25T07:31:30.671Z,8.60
2018-09-25T07:34:05.135Z,8.70
2018-09-25T07:36:38.836Z,8.80
2018-09-25T07:39:14.359Z,9.00
2018-09-25T07:41:48.301Z,9.10
2018-09-25T07:44:22.955Z,9.20
2018-09-25T07:46:56.851Z,9.30
2018-09-25T07:49:30.532Z,9.40
2018-09-25T07:52:04.271Z,9.50
2018-09-25T07:54:39.819Z,9.60
2018-09-25T07:57:13.694Z,9.70
2018-09-25T07:59:47.446Z,9.90
2018-09-25T08:02:21.123Z,9.90
2018-09-25T08:04:55.596Z,10.10
2018-09-25T08:07:29.196Z,10.10
2018-09-25T08:10:02.879Z,10.20
2018-09-25T08:12:36.759Z,10.40
2018-09-25T08:15:10.923Z,10.50
2018-09-25T08:17:44.546Z,10.60
2018-09-25T08:20:18.196Z,10.70
2018-09-25T08:22:51.832Z,10.80
2018-09-25T08:25:25.743Z,10.90
2018-09-25T08:27:59.386Z,11.00
2018-09-25T08:30:33.200Z,11.10
2018-09-25T08:33:06.850Z,11.20
2018-09-25T08:35:42.020Z,11.30
2018-09-25T08:38:15.803Z,11.50
2018-09-25T08:40:49.619Z,11.60
2018-09-25T08:43:23.329Z,11.80
2018-09-25T08:45:57.391Z,11.90
2018-09-25T08:48:31.347Z,12.10
2018-09-25T08:51:05.106Z,12.20
2018-09-25T08:53:38.867Z,12.20
2018-09-25T08:56:13.544Z,12.30
2018-09-25T08:58:47.697Z,12.40
2018-09-25T09:01:21.338Z,12.40
2018-09-25T09:03:54.975Z,12.50
2018-09-25T09:06:29.499Z,12.70
2018-09-25T09:09:03.200Z,12.80
2018-09-25T09:11:36.997Z,12.90
2018-09-25T09:14:10.655Z,13.00
2018-09-25T09:16:45.487Z,13.00
2018-09-25T09:19:19.134Z,13.00
2018-09-25T09:21:52.806Z,13.20
2018-09-25T09:24:26.447Z,13.20
2018-09-25T09:27:00.532Z,13.10
2018-09-25T09:29:34.334Z,13.20
2018-09-25T09:32:08.042Z,13.30
2018-09-25T09:34:41.949Z,13.30
2018-09-25T09:37:16.619Z,13.30
2018-09-25T09:39:50.218Z,13.40
2018-09-25T09:42:23.830Z,13.50
2018-09-25T09:44:57.455Z,13.60
2018-09-25T09:47:31.898Z,13.60
2018-09-25T09:50:05.671Z,13.70
2018-09-25T09:52:39.427Z,13.60
2018-09-25T09:55:13.430Z,13.60
2018-09-25T09:57:48.308Z,13.80
2018-09-25T10:00:21.979Z,13.80
2018-09-25T10:02:55.814Z,13.80
2018-09-25T10:05:29.667Z,13.90
2018-09-25T10:08:04.525Z,13.90
2018-09-25T10:10:38.216Z,14.00
2018-09-25T10:13:12.261Z,13.80
2018-09-25T10:15:46.155Z,13.60
2018-09-25T10:18:20.863Z,13.40
2018-09-25T10:20:54.539Z,13.60
2018-09-25T10:23:28.170Z,13.70
2018-09-25T10:26:01.822Z,13.80
2018-09-25T10:28:36.825Z,13.90
2018-09-25T10:31:10.606Z,13.90
2018-09-25T10:33:44.290Z,13.80
2018-09-25T10:36:18.583Z,13.60
2018-09-25T10:38:52.877Z,13.40
2018-09-25T10:41:26.758Z,13.20
2018-09-25T10:44:00.379Z,13.10
2018-09-25T10:46:34.030Z,13.10
2018-09-25T10:49:07.946Z,13.10
2018-09-25T10:51:41.579Z,13.20
2018-09-25T10:54:15.227Z,13.20
2018-09-25T10:56:48.891Z,13.30
2018-09-25T10:59:22.569Z,13.50
2018-09-25T11:01:56.419Z,13.60
2018-09-25T11:04:30.055Z,13.70
2018-09-25T11:07:03.758Z,13.80
2018-09-25T11:09:37.416Z,13.70
2018-09-25T11:12:11.231Z,13.70
2018-09-25T11:14:45.139Z,13.70
2018-09-25T11:17:18.750Z,13.80
2018-09-25T11:19:52.423Z,13.80
2018-09-25T11:22:26.062Z,13.70
2018-09-25T11:24:59.848Z,13.60
2018-09-25T11:27:33.570Z,13.60
2018-09-25T11:30:07.356Z,13.60
2018-09-25T11:32:41.363Z,13.60
2018-09-25T11:35:15.214Z,13.50
2018-09-25T11:37:49.013Z,13.50
2018-09-25T11:40:22.674Z,13.40
2018-09-25T11:42:56.262Z,13.40
2018-09-25T11:45:29.878Z,13.30
2018-09-25T11:48:03.534Z,13.30
2018-09-25T11:50:37.163Z,13.40
2018-09-25T11:53:11.274Z,13.50
2018-09-25T11:55:45.127Z,13.70
2018-09-25T11:58:18.901Z,13.90
2018-09-25T12:00:52.533Z,14.10
2018-09-25T12:03:26.050Z,14.20
2018-09-25T12:05:59.775Z,14.20
2018-09-25T12:08:33.397Z,14.30
2018-09-25T12:11:07.050Z,14.30
2018-09-25T12:13:40.921Z,14.40
2018-09-25T12:16:14.768Z,14.50
2018-09-25T12:18:48.409Z,14.60
2018-09-25T12:21:22.054Z,14.60
2018-09-25T12:23:55.834Z,14.60
2018-09-25T12:26:29.638Z,14.40
2018-09-25T12:29:03.246Z,14.40
2018-09-25T12:31:36.879Z,14.30
2018-09-25T12:34:10.434Z,14.20
2018-09-25T12:36:44.070Z,14.20
2018-09-25T12:39:17.915Z,14.10
2018-09-25T12:41:51.731Z,14.10
2018-09-25T12:44:25.550Z,14.10
2018-09-25T12:46:59.327Z,14.00
2018-09-25T12:49:33.143Z,13.90
2018-09-25T12:52:06.838Z,13.90
2018-09-25T12:54:40.663Z,13.90
2018-09-25T12:57:14.490Z,13.90
2018-09-25T12:59:48.082Z,14.00
2018-09-25T13:02:21.986Z,14.10
2018-09-25T13:04:55.861Z,14.20
2018-09-25T13:07:29.478Z,14.30
2018-09-25T13:10:03.054Z,14.30
2018-09-25T13:12:36.645Z,14.40
2018-09-25T13:15:10.480Z,14.30
2018-09-25T13:17:44.286Z,14.30
2018-09-25T13:20:18.056Z,14.30
2018-09-25T13:22:51.780Z,14.30
2018-09-25T13:25:25.592Z,14.30
2018-09-25T13:27:59.161Z,14.40
2018-09-25T13:30:32.846Z,14.30
2018-09-25T13:33:06.584Z,14.30
2018-09-25T13:35:40.275Z,14.40
2018-09-25T13:38:14.158Z,14.40
2018-09-25T13:40:47.831Z,14.40
2018-09-25T13:43:21.476Z,14.40
2018-09-25T13:45:55.266Z,14.40
2018-09-25T13:48:29.140Z,14.50
2018-09-25T13:51:02.826Z,14.40
2018-09-25T13:53:36.514Z,14.40
2018-09-25T13:56:10.484Z,14.40
2018-09-25T13:58:44.293Z,14.40
2018-09-25T14:01:17.922Z,14.40
2018-09-25T14:03:51.707Z,14.50
2018-09-25T14:06:25.407Z,14.50
2018-09-25T14:08:59.234Z,14.60
2018-09-25T14:11:32.830Z,14.60
2018-09-25T14:14:06.659Z,14.60
2018-09-25T14:16:40.268Z,14.60
2018-09-25T14:19:14.683Z,14.60
2018-09-25T14:21:48.599Z,14.60
2018-09-25T14:24:22.331Z,14.60
2018-09-25T14:26:56.162Z,14.50
2018-09-25T14:30:32.698Z,14.50
2018-09-25T14:33:06.298Z,14.50
2018-09-25T14:35:40.122Z,14.60
2018-09-25T14:38:13.923Z,14.70
2018-09-25T14:40:47.699Z,14.90
2018-09-25T14:43:21.430Z,14.90
2018-09-25T14:45:55.125Z,14.90
2018-09-25T14:48:28.851Z,14.70
2018-09-25T14:51:02.544Z,14.70
2018-09-25T14:53:36.205Z,14.70
2018-09-25T14:56:10.127Z,14.80
2018-09-25T14:58:43.855Z,14.80
2018-09-25T15:01:17.568Z,14.80
2018-09-25T15:03:51.271Z,14.80
2018-09-25T15:06:25.109Z,14.70
2018-09-25T15:08:58.907Z,14.60
2018-09-25T15:11:32.647Z,14.60
2018-09-25T15:14:06.495Z,14.50
2018-09-25T15:16:40.097Z,14.40
2018-09-25T15:19:14.198Z,14.20
2018-09-25T15:21:48.098Z,14.10
2018-09-25T15:24:22.071Z,14.00
2018-09-25T15:26:56.130Z,13.90
2018-09-25T15:29:29.855Z,13.70
2018-09-25T15:32:03.727Z,13.70
2018-09-25T15:34:37.534Z,13.60
2018-09-25T15:37:11.752Z,13.60
2018-09-25T15:39:45.590Z,13.60
2018-09-25T15:42:19.414Z,13.60
2018-09-25T15:44:53.158Z,13.70
2018-09-25T15:47:26.902Z,13.70
2018-09-25T15:50:00.712Z,13.70
2018-09-25T15:52:34.475Z,13.70
2018-09-25T15:55:08.214Z,13.70
2018-09-25T15:57:41.926Z,13.80
2018-09-25T16:00:15.596Z,13.70
2018-09-25T16:02:49.527Z,13.70
2018-09-25T16:05:23.197Z,13.70
2018-09-25T16:07:56.984Z,13.80
2018-09-25T16:10:30.804Z,13.80
2018-09-25T16:13:04.535Z,13.80
2018-09-25T16:15:38.247Z,13.80
2018-09-25T16:18:12.088Z,13.80
2018-09-25T16:20:46.761Z,13.80
2018-09-25T16:23:20.470Z,13.80
2018-09-25T16:25:54.315Z,13.80
2018-09-25T16:28:28.007Z,13.70
2018-09-25T16:31:02.579Z,13.70
2018-09-25T16:33:36.191Z,13.70
2018-09-25T16:36:10.105Z,13.60
2018-09-25T16:38:43.894Z,13.60
2018-09-25T16:41:18.947Z,13.50
2018-09-25T16:43:52.850Z,13.50
2018-09-25T16:46:26.710Z,13.40
2018-09-25T16:49:00.546Z,13.40
2018-09-25T16:51:34.386Z,13.30
2018-09-25T16:54:07.994Z,13.30
2018-09-25T16:56:41.601Z,13.30
2018-09-25T16:59:15.525Z,13.30
2018-09-25T17:01:49.970Z,13.20
2018-09-25T17:04:23.726Z,13.20
2018-09-25T17:06:57.572Z,13.20
2018-09-25T17:09:31.610Z,13.10
2018-09-25T17:12:06.764Z,13.00
2018-09-25T17:14:40.837Z,13.00
2018-09-25T17:17:14.550Z,12.90
2018-09-25T17:19:48.164Z,12.80
2018-09-25T17:22:23.147Z,12.80
2018-09-25T17:24:56.891Z,12.70
2018-09-25T17:27:30.715Z,12.60
2018-09-25T17:30:04.511Z,12.50
2018-09-25T17:32:39.306Z,12.40
2018-09-25T17:35:13.712Z,12.30
2018-09-25T17:37:47.338Z,12.30
2018-09-25T17:40:21.266Z,12.10
2018-09-25T17:42:56.753Z,12.00
2018-09-25T17:45:31.263Z,11.90
2018-09-25T17:48:04.848Z,11.80
2018-09-25T17:50:38.546Z,11.60
2018-09-25T17:53:13.378Z,11.60
2018-09-25T17:55:47.249Z,11.40
2018-09-25T17:58:20.811Z,11.40
2018-09-25T18:00:54.701Z,11.30
2018-09-25T18:03:29.250Z,11.20
2018-09-25T18:06:03.087Z,11.10
2018-09-25T18:08:36.791Z,11.00
2018-09-25T18:11:10.471Z,10.90
2018-09-25T18:13:44.562Z,10.90
2018-09-25T18:16:18.394Z,10.80
2018-09-25T18:18:55.327Z,10.70
2018-09-25T18:21:29.343Z,10.70
2018-09-25T18:24:03.904Z,10.60
2018-09-25T18:26:37.560Z,10.60
2018-09-25T18:29:11.266Z,10.50
2018-09-25T18:31:44.958Z,10.50
2018-09-25T18:34:20.643Z,10.40
2018-09-25T18:37:02.164Z,10.30
2018-09-25T18:39:35.977Z,10.30
2018-09-25T18:42:09.620Z,10.20
2018-09-25T18:44:44.449Z,10.20
2018-09-25T18:47:18.274Z,10.20
2018-09-25T18:49:52.282Z,10.10
2018-09-25T18:52:25.990Z,10.10
2018-09-25T18:55:00.446Z,10.00
2018-09-25T18:57:34.432Z,10.00
2018-09-25T19:00:08.217Z,9.90
2018-09-25T19:02:42.001Z,9.90
2018-09-25T19:05:16.156Z,9.90
2018-09-25T19:07:50.264Z,9.80
2018-09-25T19:10:23.927Z,9.80
2018-09-25T19:12:57.561Z,9.70
2018-09-25T19:15:32.438Z,9.70
2018-09-25T19:18:06.462Z,9.60
2018-09-25T19:20:40.175Z,9.60
2018-09-25T19:23:14.115Z,9.50
2018-09-25T19:25:48.177Z,9.50
2018-09-25T19:28:22.134Z,9.50
2018-09-25T19:30:55.975Z,9.40
2018-09-25T19:33:29.730Z,9.40
2018-09-25T19:36:04.607Z,9.30
2018-09-25T19:38:38.379Z,9.20
2018-09-25T19:41:12.183Z,9.10
2018-09-25T19:43:45.786Z,9.10
2018-09-25T19:46:20.174Z,9.10
2018-09-25T19:48:54.123Z,9.00
2018-09-25T19:51:27.963Z,9.10
2018-09-25T19:54:01.699Z,9.10
2018-09-25T19:56:36.329Z,9.10
2018-09-25T19:59:10.094Z,9.00
2018-09-25T20:01:43.781Z,9.00
2018-09-25T20:04:17.598Z,9.00
2018-09-25T20:06:51.241Z,9.00
2018-09-25T20:09:24.930Z,8.90
2018-09-25T20:11:58.676Z,8.90
2018-09-25T20:14:32.498Z,8.90
2018-09-25T20:17:06.317Z,8.90
2018-09-25T20:19:40.199Z,8.90
2018-09-25T20:22:14.737Z,8.90
2018-09-25T20:24:48.554Z,8.90
2018-09-25T20:27:23.572Z,8.80
2018-09-25T20:29:57.502Z,8.80
2018-09-25T20:32:31.265Z,8.80
2018-09-25T20:35:05.043Z,8.70
2018-09-25T20:37:40.042Z,8.60
2018-09-25T20:40:14.066Z,8.60
2018-09-25T20:42:47.942Z,8.60
2018-09-25T20:45:21.860Z,8.60
2018-09-25T20:47:55.968Z,8.60
2018-09-25T20:50:29.837Z,8.60
2018-09-25T20:53:03.658Z,8.50
2018-09-25T20:55:37.426Z,8.50
2018-09-25T20:58:12.203Z,8.50
2018-09-25T21:00:46.048Z,8.50
2018-09-25T21:03:19.723Z,8.50
2018-09-25T21:05:53.558Z,8.50
2018-09-25T21:08:27.823Z,8.50
2018-09-25T21:11:01.442Z,8.50
2018-09-25T21:13:35.179Z,8.50
2018-09-25T21:16:08.851Z,8.50
2018-09-25T21:18:43.252Z,8.50
2018-09-25T21:21:17.146Z,8.40
2018-09-25T21:23:51.007Z,8.40
2018-09-25T21:26:24.851Z,8.30
2018-09-25T21:28:59.146Z,8.30
2018-09-25T21:31:32.911Z,8.30
2018-09-25T21:34:06.799Z,8.20
2018-09-25T21:36:40.463Z,8.10
2018-09-25T21:39:14.955Z,8.10
2018-09-25T21:41:49.970Z,8.10
2018-09-25T21:44:23.827Z,8.20
2018-09-25T21:46:58.156Z,8.10
2018-09-25T21:49:32.922Z,8.20
2018-09-25T21:52:06.902Z,8.10
2018-09-25T21:54:41.005Z,8.20
2018-09-25T21:57:15.158Z,8.20
2018-09-25T21:59:48.869Z,8.20
2018-09-25T22:02:22.650Z,8.20
2018-09-25T22:04:56.542Z,8.20
2018-09-25T22:07:30.226Z,8.20
2018-09-25T22:10:04.824Z,8.20
2018-09-25T22:12:38.563Z,8.10
2018-09-25T22:15:12.390Z,8.10
2018-09-25T22:17:46.179Z,8.10
2018-09-25T22:20:20.977Z,8.10
2018-09-25T22:22:56.784Z,8.10
2018-09-25T22:25:30.355Z,8.10
2018-09-25T22:28:03.934Z,8.10
2018-09-25T22:30:38.239Z,8.10
2018-09-25T22:33:12.423Z,8.10
2018-09-25T22:35:46.170Z,8.00
2018-09-25T22:38:19.806Z,8.00
2018-09-25T22:40:53.589Z,7.90
2018-09-25T22:43:27.500Z,7.90
2018-09-25T22:46:01.367Z,7.90
2018-09-25T22:48:35.219Z,7.90
2018-09-25T22:51:09.495Z,7.90
2018-09-25T22:53:43.262Z,7.80
2018-09-25T22:56:16.959Z,7.80
2018-09-25T22:58:50.767Z,7.80
2018-09-25T23:01:25.838Z,7.80
2018-09-25T23:03:59.712Z,7.70
2018-09-25T23:06:33.491Z,7.70
2018-09-25T23:09:07.100Z,7.70
2018-09-25T23:11:40.674Z,7.70
2018-09-25T23:14:14.358Z,7.70
2018-09-25T23:31:13.674Z,7.40
2018-09-25T23:33:47.419Z,7.40
2018-09-25T23:36:21.121Z,7.40
2018-09-25T23:38:54.839Z,7.30
2018-09-25T23:43:29.504Z,7.30
2018-09-25T23:46:08.574Z,7.20
2018-09-25T23:48:42.230Z,7.20
2018-09-25T23:51:15.290Z,7.30
2018-09-25T23:53:56.890Z,7.20
2018-09-25T23:56:34.559Z,7.20
2018-09-25T23:59:08.278Z,7.30
